Time;durP1;ratioP1;P1;durP2;ratioP2;P2;SDS_P1;SDS_P2;PMS_P1;PMS_P2;Temp;Humidity;BMP_temperature;BMP_pressure;BME280_temperature;BME280_humidity;BME280_pressure;Samples;Min_cycle;Max_cycle;Signal;HPM_P1;HPM_P2
2022/11/22 00:02:14;;;;;;;5.60;2.47;;;;;;;-0.67;76.99;100449.16;4943843;28;20248;-67
2022/11/22 00:05:08;;;;;;;4.72;2.17;;;;;;;-0.46;76.57;100454.09;4952792;28;20056;-64
2022/11/22 00:08:03;;;;;;;5.35;3.00;;;;;;;-0.29;74.81;100452.03;4899881;28;20083;-65
2022/11/22 00:11:05;;;;;;;7.65;2.88;;;;;;;-0.35;73.75;100450.97;4949960;28;20063;-67
2022/11/22 00:13:44;;;;;;;6.53;2.35;;;;;;;-0.25;73.29;100463.25;4941211;28;20060;-66
2022/11/22 00:16:41;;;;;;;7.03;2.65;;;;;;;-0.13;71.58;100468.78;4933141;28;20072;-64
2022/11/22 00:19:18;;;;;;;5.97;2.80;;;;;;;0.15;73.10;100464.44;4862381;28;20092;-64
2022/11/22 00:22:03;;;;;;;5.85;2.50;;;;;;;0.19;72.06;100466.28;4900920;28;20040;-64
2022/11/22 00:24:58;;;;;;;4.13;2.72;;;;;;;-0.04;72.69;100458.78;4941575;28;20397;-64
2022/11/22 00:27:53;;;;;;;6.15;2.58;;;;;;;0.03;74.16;100453.84;4905527;27;20120;-64
2022/11/22 00:30:56;;;;;;;4.55;2.42;;;;;;;0.08;73.29;100458.28;4888516;28;20079;-65
2022/11/22 00:33:51;;;;;;;10.07;2.67;;;;;;;0.10;72.79;100459.19;4894862;28;20036;-64
2022/11/22 00:36:46;;;;;;;7.63;2.72;;;;;;;0.18;72.28;100449.13;4950799;28;20084;-66
2022/11/22 00:39:33;;;;;;;7.28;2.33;;;;;;;0.34;71.00;100451.28;4944225;28;20048;-65
2022/11/22 00:42:36;;;;;;;6.60;2.40;;;;;;;0.42;70.25;100449.84;4902843;28;20056;-63
2022/11/22 00:45:26;;;;;;;8.23;2.83;;;;;;;0.47;69.33;100443.91;4931076;28;20144;-64
2022/11/22 00:48:23;;;;;;;6.65;3.00;;;;;;;0.48;68.69;100433.69;4943537;28;20059;-65
2022/11/22 00:50:58;;;;;;;7.85;2.50;;;;;;;0.47;68.50;100436.22;4893094;28;20048;-65
2022/11/22 00:53:39;;;;;;;8.27;2.70;;;;;;;0.54;68.76;100443.25;4879775;28;20128;-64
2022/11/22 00:56:11;;;;;;;6.40;2.70;;;;;;;0.65;68.80;100436.72;4893159;28;20040;-69
2022/11/22 00:59:13;;;;;;;5.82;2.60;;;;;;;0.77;67.78;100447.31;4928515;28;20052;-66
2022/11/22 01:01:52;;;;;;;10.00;2.70;;;;;;;0.77;67.79;100423.28;4930715;28;20036;-66
2022/11/22 01:04:36;;;;;;;4.18;2.28;;;;;;;1.11;65.98;100443.03;4932227;28;20071;-65
2022/11/22 01:07:32;;;;;;;7.00;2.80;;;;;;;1.24;64.65;100452.78;4924324;28;20048;-67
2022/11/22 01:10:31;;;;;;;3.88;2.45;;;;;;;1.23;65.03;100443.34;4905691;28;20465;-66
2022/11/22 01:16:34;;;;;;;5.45;2.72;;;;;;;1.43;64.63;100435.22;4929383;28;20044;-68
2022/11/22 01:19:19;;;;;;;7.90;2.70;;;;;;;1.35;64.99;100426.41;4880186;28;20052;-66
2022/11/22 01:22:02;;;;;;;10.80;2.95;;;;;;;1.22;64.62;100418.44;4947470;28;20517;-65
2022/11/22 01:24:44;;;;;;;10.38;2.85;;;;;;;1.32;65.15;100426.34;4917443;28;20074;-66
2022/11/22 01:27:33;;;;;;;10.20;3.05;;;;;;;1.49;64.65;100419.91;4944483;28;20128;-65
2022/11/22 01:30:35;;;;;;;7.57;2.75;;;;;;;1.49;62.87;100414.75;4924529;28;20037;-65
2022/11/22 01:33:20;;;;;;;12.55;6.10;;;;;;;1.70;65.54;100417.81;4901548;28;20314;-64
2022/11/22 01:36:14;;;;;;;15.68;6.90;;;;;;;1.81;66.77;100422.31;4930724;28;20069;-64
2022/11/22 01:39:01;;;;;;;9.43;3.75;;;;;;;1.77;67.53;100418.78;4897055;28;20056;-62
2022/11/22 01:41:40;;;;;;;7.72;3.40;;;;;;;1.91;67.80;100434.56;4892372;28;20426;-62
2022/11/22 01:44:30;;;;;;;11.43;3.20;;;;;;;1.86;68.93;100380.34;4934619;28;20044;-61
2022/11/22 01:47:15;;;;;;;8.23;3.53;;;;;;;2.22;69.84;100436.09;4944465;28;20051;-61
2022/11/22 01:50:07;;;;;;;7.80;3.20;;;;;;;1.99;68.31;100422.69;4914037;28;20062;-62
2022/11/22 01:53:19;;;;;;;14.07;5.50;;;;;;;1.80;68.30;100430.88;4945359;28;20146;-62
2022/11/22 01:56:04;;;;;;;9.73;3.75;;;;;;;1.89;68.85;100425.94;4891567;28;20098;-62
2022/11/22 01:58:59;;;;;;;10.70;3.00;;;;;;;2.04;68.37;100433.97;4883388;28;20546;-62
2022/11/22 02:01:54;;;;;;;8.02;3.72;;;;;;;2.22;67.59;100422.31;4944106;28;20053;-61
2022/11/22 02:04:51;;;;;;;7.95;3.50;;;;;;;2.30;67.55;100424.22;4918244;28;20079;-64
2022/11/22 02:07:55;;;;;;;6.82;2.92;;;;;;;2.23;67.15;100411.16;4903077;28;20102;-63
2022/11/22 02:10:48;;;;;;;9.23;3.35;;;;;;;2.09;67.40;100398.84;4941699;28;20268;-63
2022/11/22 02:16:36;;;;;;;6.85;2.90;;;;;;;2.00;66.78;100414.16;4860845;28;20119;-66
2022/11/22 02:19:40;;;;;;;8.13;3.47;;;;;;;1.90;66.50;100412.22;4873656;28;20065;-63
2022/11/22 02:23:06;;;;;;;6.82;2.72;;;;;;;1.97;66.50;100414.06;4908916;28;20048;-63
2022/11/22 02:26:11;;;;;;;6.07;3.22;;;;;;;2.11;66.26;100412.66;4917488;28;20040;-63
2022/11/22 02:28:55;;;;;;;6.30;2.78;;;;;;;2.36;65.18;100418.28;4921298;28;20049;-65
2022/11/22 02:31:51;;;;;;;6.80;2.97;;;;;;;2.53;65.01;100421.19;4894135;28;20118;-65
2022/11/22 02:34:34;;;;;;;6.90;2.53;;;;;;;2.52;64.94;100420.34;4902549;28;20116;-62
2022/11/22 02:37:22;;;;;;;6.72;3.15;;;;;;;2.46;64.68;100420.22;4920433;28;20045;-61
2022/11/22 02:40:05;;;;;;;5.18;2.95;;;;;;;2.55;64.72;100429.84;4913147;28;20058;-64
2022/11/22 02:43:16;;;;;;;7.63;3.28;;;;;;;2.30;65.66;100433.66;4918073;28;20050;-64
2022/11/22 02:46:12;;;;;;;4.50;2.83;;;;;;;2.09;66.69;100434.94;4879803;28;20126;-62
2022/11/22 02:49:45;;;;;;;8.38;3.25;;;;;;;1.49;67.23;100441.34;4901422;28;20507;-64
2022/11/22 02:52:33;;;;;;;6.85;3.47;;;;;;;1.18;67.89;100444.94;4890386;28;20378;-63
2022/11/22 02:55:39;;;;;;;8.82;3.00;;;;;;;0.95;67.63;100451.19;4843268;28;20092;-63
2022/11/22 02:59:01;;;;;;;4.70;2.85;;;;;;;0.52;68.18;100450.94;4922309;28;20108;-63
2022/11/22 03:01:49;;;;;;;8.10;2.95;;;;;;;0.58;69.77;100469.09;4834874;28;20061;-65
2022/11/22 03:04:41;;;;;;;6.30;2.83;;;;;;;0.55;69.80;100465.56;4864610;28;20041;-64
2022/11/22 03:07:20;;;;;;;7.90;2.70;;;;;;;0.36;70.54;100467.63;4852489;28;20045;-65
2022/11/22 03:09:54;;;;;;;4.28;2.70;;;;;;;0.28;71.93;100476.84;4898939;28;20041;-64
2022/11/22 03:12:47;;;;;;;4.90;2.55;;;;;;;0.18;72.60;100474.84;4891816;28;20052;-67
2022/11/22 03:15:39;;;;;;;5.75;3.28;;;;;;;0.03;74.21;100469.25;4936528;28;20077;-64
2022/11/22 03:21:09;;;;;;;9.02;2.85;;;;;;;-0.63;72.14;100378.25;4923004;28;20038;-63
2022/11/22 03:24:10;;;;;;;4.25;2.63;;;;;;;-0.17;72.28;100471.22;4923853;28;20437;-63
2022/11/22 03:26:52;;;;;;;5.68;2.80;;;;;;;-0.88;73.38;100392.88;4900428;28;20084;-62
2022/11/22 03:29:48;;;;;;;4.82;2.40;;;;;;;-0.24;74.21;100472.72;4923860;28;21424;-63
2022/11/22 03:32:51;;;;;;;4.78;2.83;;;;;;;0.08;74.06;100473.69;4902562;28;20133;-62
2022/11/22 03:35:37;;;;;;;6.57;3.60;;;;;;;0.29;74.00;100477.72;4932742;27;20064;-66
2022/11/22 03:38:28;;;;;;;8.48;2.72;;;;;;;0.35;73.78;100489.03;4920109;28;20074;-63
2022/11/22 03:41:03;;;;;;;7.55;2.72;;;;;;;0.23;72.82;100478.41;4910240;28;20053;-64
2022/11/22 03:43:41;;;;;;;;;;;;;;;-0.06;73.71;100486.13;4879588;28;20049;-65
2022/11/22 03:46:25;;;;;;;5.82;2.45;;;;;;;-0.44;73.96;100488.38;4927737;28;20077;-66
2022/11/22 03:49:12;;;;;;;8.45;2.72;;;;;;;-0.83;73.61;100484.53;4925724;28;20222;-65
2022/11/22 03:54:55;;;;;;;4.15;2.47;;;;;;;-1.61;75.39;100492.94;4902896;28;20112;-65
2022/11/22 03:57:37;;;;;;;5.97;2.65;;;;;;;-1.81;77.53;100497.34;4934910;28;20040;-66
2022/11/22 04:00:26;;;;;;;4.60;2.70;;;;;;;-2.03;78.91;100503.34;4936033;28;20541;-67
2022/11/22 04:03:13;;;;;;;6.65;2.72;;;;;;;-2.23;79.58;100508.56;4919458;28;20052;-66
2022/11/22 04:06:24;;;;;;;3.92;2.47;;;;;;;-2.25;78.95;100502.50;4925599;28;20469;-69
2022/11/22 04:09:10;;;;;;;4.28;2.70;;;;;;;-2.30;78.14;100504.00;4924767;28;20419;-67
2022/11/22 04:12:01;;;;;;;;;;;;;;;-2.21;77.84;100514.63;4873677;28;20045;-66
2022/11/22 04:17:43;;;;;;;3.60;2.25;;;;;;;-2.43;76.93;100514.59;4914573;28;20055;-68
2022/11/22 04:23:33;;;;;;;5.10;3.38;;;;;;;-2.37;78.02;100527.63;4933850;28;20046;-66
2022/11/22 04:26:08;;;;;;;10.32;3.67;;;;;;;-2.53;78.10;100474.09;4900115;28;20048;-66
2022/11/22 04:28:50;;;;;;;3.78;2.88;;;;;;;-2.14;77.75;100535.34;4925280;28;20059;-68
2022/11/22 04:35:07;;;;;;;5.03;2.53;;;;;;;-1.94;76.47;100528.44;4890334;28;20055;-68
2022/11/22 04:37:42;;;;;;;5.95;2.53;;;;;;;-2.12;76.49;100482.50;4895171;28;20056;-68
2022/11/22 04:40:25;;;;;;;7.13;2.63;;;;;;;-1.86;75.74;100527.91;4918870;28;20048;-65
2022/11/22 04:46:20;;;;;;;5.50;2.55;;;;;;;-1.90;75.27;100531.16;4902413;28;20446;-67
2022/11/22 04:49:00;;;;;;;6.38;2.60;;;;;;;-1.87;74.89;100536.41;4920432;28;20111;-67
2022/11/22 04:54:56;;;;;;;4.93;2.55;;;;;;;-2.23;74.80;100536.72;4906788;28;20597;-66
2022/11/22 04:58:18;;;;;;;8.68;2.75;;;;;;;-2.14;75.25;100535.34;4922720;28;20048;-66
2022/11/22 05:04:03;;;;;;;5.85;3.30;;;;;;;-2.28;74.06;100543.34;4912962;28;20072;-67
2022/11/22 05:09:46;;;;;;;5.10;2.10;;;;;;;-2.24;74.15;100554.59;4931825;28;20049;-66
2022/11/22 05:12:20;;;;;;;5.60;2.60;;;;;;;-2.13;74.04;100552.44;4935658;28;20048;-67
2022/11/22 05:18:08;;;;;;;4.43;2.38;;;;;;;-1.97;73.73;100570.16;4894704;28;20474;-67
2022/11/22 05:20:47;;;;;;;5.00;2.30;;;;;;;-2.14;72.70;100581.44;4890982;28;20054;-67
2022/11/22 05:26:30;;;;;;;4.22;2.45;;;;;;;-2.38;74.70;100577.06;4867253;28;20499;-66
2022/11/22 05:29:14;;;;;;;4.18;2.47;;;;;;;-2.44;75.23;100585.38;4887067;28;20049;-67
2022/11/22 05:32:03;;;;;;;5.60;2.60;;;;;;;-2.52;75.51;100593.53;4872005;28;20045;-66
2022/11/22 05:34:58;;;;;;;3.70;2.50;;;;;;;-2.59;75.40;100597.53;4875629;28;20046;-65
2022/11/22 05:37:57;;;;;;;8.23;2.80;;;;;;;-2.66;76.45;100604.06;4853762;28;20057;-66
2022/11/22 05:40:47;;;;;;;4.63;2.58;;;;;;;-2.83;76.31;100592.25;4883860;28;20112;-66
2022/11/22 05:43:21;;;;;;;8.75;2.38;;;;;;;-2.92;76.83;100607.19;4880360;28;20061;-66
2022/11/22 05:46:15;;;;;;;7.10;2.25;;;;;;;-2.92;77.53;100607.19;4861584;28;20045;-66
2022/11/22 05:49:00;;;;;;;4.30;2.60;;;;;;;-2.97;77.25;100624.00;4864226;28;20161;-65
2022/11/22 05:51:44;;;;;;;3.85;2.10;;;;;;;-3.15;76.81;100624.94;4860835;28;20453;-65
2022/11/22 05:54:18;;;;;;;4.90;2.25;;;;;;;-3.12;77.72;100640.44;4868010;28;20046;-65
2022/11/22 06:00:22;;;;;;;6.22;2.53;;;;;;;-3.35;77.53;100638.50;4859194;28;20076;-64
2022/11/22 06:03:09;;;;;;;3.92;2.40;;;;;;;-3.55;77.87;100628.25;4901369;28;20045;-64
2022/11/22 06:05:57;;;;;;;9.77;2.60;;;;;;;-3.64;78.56;100643.16;4823150;28;20049;-64
2022/11/22 06:08:56;;;;;;;5.03;2.60;;;;;;;-4.04;78.84;100605.53;4869640;28;20106;-65
2022/11/22 06:14:35;;;;;;;5.85;2.55;;;;;;;-3.69;77.82;100665.94;4861103;28;20156;-66
2022/11/22 06:17:27;;;;;;;4.13;2.35;;;;;;;-3.76;78.86;100663.00;4903047;28;20048;-65
2022/11/22 06:20:07;;;;;;;14.52;5.65;;;;;;;-3.74;79.26;100666.53;4937484;28;20050;-66
2022/11/22 06:23:02;;;;;;;10.25;5.13;;;;;;;-3.66;79.47;100674.53;4918041;28;20088;-64
2022/11/22 06:25:52;;;;;;;6.82;3.08;;;;;;;-3.56;79.53;100677.59;4936399;28;20052;-64
2022/11/22 06:28:33;;;;;;;14.15;7.05;;;;;;;-3.58;79.38;100663.88;4876575;28;20525;-66
2022/11/22 06:31:13;;;;;;;7.10;3.10;;;;;;;-3.73;78.45;100637.63;4889390;28;20051;-64
2022/11/22 06:33:57;;;;;;;4.10;2.50;;;;;;;-3.84;76.32;100626.00;4920725;28;20059;-65
2022/11/22 06:39:46;;;;;;;10.23;2.72;;;;;;;-3.61;76.00;100684.16;4954513;28;20044;-65
2022/11/22 06:42:25;;;;;;;4.30;2.95;;;;;;;-3.53;75.58;100682.84;4925151;28;20133;-66
2022/11/22 06:45:20;;;;;;;6.15;2.65;;;;;;;-3.50;75.79;100684.66;4933165;28;20052;-66
2022/11/22 06:51:05;;;;;;;9.20;2.55;;;;;;;-3.40;74.44;100698.75;4898437;28;20060;-66
2022/11/22 06:53:46;;;;;;;4.03;2.47;;;;;;;-3.62;72.70;100692.66;4926967;28;20060;-66
2022/11/22 06:56:33;;;;;;;6.32;2.78;;;;;;;-3.70;72.06;100689.69;4925822;28;20056;-65
2022/11/22 06:59:11;;;;;;;5.65;2.30;;;;;;;-3.85;69.33;100703.41;4923530;28;20045;-66
2022/11/22 07:01:57;;;;;;;5.28;2.70;;;;;;;-3.77;70.68;100713.22;4870985;28;20057;-66
2022/11/22 07:04:43;;;;;;;5.45;3.38;;;;;;;-3.73;71.46;100716.78;4918719;28;20071;-64
2022/11/22 07:07:56;;;;;;;6.10;3.10;;;;;;;-3.78;71.38;100718.25;4924288;28;20040;-66
2022/11/22 07:10:51;;;;;;;7.40;3.47;;;;;;;-3.83;71.34;100737.56;4935658;28;20040;-65
2022/11/22 07:14:01;;;;;;;6.97;3.10;;;;;;;-3.91;71.67;100739.75;4921249;28;20183;-65
2022/11/22 07:20:06;;;;;;;5.15;3.28;;;;;;;-3.91;70.78;100755.94;4939718;28;20063;-65
2022/11/22 07:22:47;;;;;;;6.85;3.20;;;;;;;-3.90;70.92;100757.66;4910563;28;20055;-67
2022/11/22 07:25:41;;;;;;;7.25;3.50;;;;;;;-4.19;71.35;100701.78;4899238;28;20052;-66
2022/11/22 07:28:28;;;;;;;7.35;2.85;;;;;;;-3.81;72.05;100766.59;4926780;27;20077;-67
2022/11/22 07:31:15;;;;;;;6.22;3.40;;;;;;;-3.77;72.10;100778.72;4903043;28;20057;-68
2022/11/22 07:33:56;;;;;;;4.13;2.80;;;;;;;-3.72;72.00;100782.38;4914423;28;20376;-64
2022/11/22 07:36:48;;;;;;;6.13;3.58;;;;;;;-3.75;72.13;100774.56;4916165;28;20062;-63
2022/11/22 07:42:35;;;;;;;9.65;3.00;;;;;;;-3.70;71.39;100785.88;4923525;28;20341;-64
2022/11/22 07:48:02;;;;;;;5.28;2.40;;;;;;;-3.85;70.66;100800.44;4946519;28;20052;-64
2022/11/22 07:50:55;;;;;;;6.40;3.38;;;;;;;-3.81;71.23;100803.22;4929542;28;20139;-65
2022/11/22 07:53:43;;;;;;;4.38;2.33;;;;;;;-4.01;67.56;100798.81;4941014;28;20260;-64
2022/11/22 07:56:28;;;;;;;5.55;2.55;;;;;;;-4.11;67.89;100797.44;4929004;28;20072;-64
2022/11/22 07:59:11;;;;;;;6.38;2.60;;;;;;;-4.17;68.07;100807.34;4945022;28;20051;-66
2022/11/22 08:01:55;;;;;;;6.43;2.88;;;;;;;-4.27;68.55;100805.09;4924640;28;20060;-65
2022/11/22 08:04:47;;;;;;;7.07;2.60;;;;;;;-4.37;68.28;100807.19;4871671;28;20078;-64
2022/11/22 08:07:32;;;;;;;4.82;2.58;;;;;;;-4.44;69.09;100812.78;4915533;28;20091;-64
2022/11/22 08:10:32;;;;;;;5.38;3.05;;;;;;;-4.58;68.71;100811.16;4924268;28;20257;-63
2022/11/22 08:13:30;;;;;;;5.55;2.65;;;;;;;-4.51;68.88;100825.13;4920955;28;20040;-64
2022/11/22 08:16:17;;;;;;;3.75;2.13;;;;;;;-4.67;66.17;100823.41;4896057;28;20057;-63
2022/11/22 08:19:21;;;;;;;4.50;2.42;;;;;;;-4.58;66.48;100839.22;4918724;28;20348;-63
2022/11/22 08:22:13;;;;;;;4.25;2.50;;;;;;;-4.61;67.01;100847.56;4906448;28;20048;-64
2022/11/22 08:25:14;;;;;;;3.40;2.22;;;;;;;-4.73;66.38;100843.50;4906636;28;20048;-61
2022/11/22 08:28:07;;;;;;;5.43;2.63;;;;;;;-4.78;67.84;100851.75;4943478;28;20036;-62
2022/11/22 08:31:08;;;;;;;4.07;2.53;;;;;;;-5.32;67.56;100819.88;4949070;28;20474;-64
2022/11/22 08:34:07;;;;;;;9.15;3.58;;;;;;;-5.14;68.43;100852.25;4938001;28;20050;-63
2022/11/22 08:36:50;;;;;;;4.35;2.95;;;;;;;-5.15;69.00;100873.44;4903036;28;20101;-63
2022/11/22 08:39:36;;;;;;;7.97;4.50;;;;;;;-5.25;68.99;100872.94;4919824;28;20048;-63
2022/11/22 08:42:23;;;;;;;13.35;5.13;;;;;;;-5.55;69.33;100881.38;4865971;28;20515;-62
2022/11/22 08:45:10;;;;;;;17.38;6.72;;;;;;;-5.73;70.63;100891.34;4950176;28;20044;-64
2022/11/22 08:48:04;;;;;;;8.73;5.20;;;;;;;-5.75;72.13;100885.28;4934511;27;20112;-62
2022/11/22 08:50:44;;;;;;;9.98;4.90;;;;;;;-5.84;72.86;100898.38;4873902;28;20115;-62
2022/11/22 08:53:24;;;;;;;11.88;5.50;;;;;;;-5.82;73.97;100881.50;4944665;27;20047;-61
2022/11/22 08:59:13;;;;;;;8.35;4.20;;;;;;;-5.99;74.37;100897.47;4932913;27;20116;-63
2022/11/22 09:02:21;;;;;;;7.00;3.90;;;;;;;-6.25;75.10;100904.41;4932581;27;20049;-62
2022/11/22 09:05:18;;;;;;;6.63;3.97;;;;;;;-6.59;76.30;100897.25;4926799;28;20052;-62
2022/11/22 09:08:30;;;;;;;12.38;4.38;;;;;;;-6.72;76.96;100899.78;4937406;27;20104;-63
2022/11/22 09:11:22;;;;;;;12.38;5.20;;;;;;;-6.80;77.51;100896.75;4929938;28;20048;-62
2022/11/22 09:14:40;;;;;;;21.52;10.18;;;;;;;-6.75;78.27;100899.59;4873730;28;20373;-62
2022/11/22 09:17:34;;;;;;;10.52;4.63;;;;;;;-6.69;78.09;100899.09;4933487;28;20067;-62
2022/11/22 09:20:23;;;;;;;6.93;4.03;;;;;;;-6.66;78.91;100867.16;4942300;28;20083;-62
2022/11/22 09:23:08;;;;;;;6.93;3.35;;;;;;;-6.54;79.35;100884.78;4880716;28;20060;-63
2022/11/22 09:25:52;;;;;;;7.15;3.10;;;;;;;-6.47;78.78;100901.31;4915168;28;20055;-64
2022/11/22 09:28:39;;;;;;;9.50;3.15;;;;;;;-6.68;78.37;100895.78;4944786;28;20216;-63
2022/11/22 09:31:15;;;;;;;8.05;4.65;;;;;;;-6.95;78.36;100891.59;4928436;28;20056;-63
2022/11/22 09:33:59;;;;;;;9.32;5.05;;;;;;;-6.93;78.93;100903.53;4954472;28;20083;-64
2022/11/22 09:36:41;;;;;;;7.10;3.30;;;;;;;-6.89;79.52;100902.91;4921225;28;20350;-64
2022/11/22 09:39:30;;;;;;;8.93;4.07;;;;;;;-6.97;79.24;100903.31;4868193;28;20070;-63
2022/11/22 09:42:50;;;;;;;9.95;5.07;;;;;;;-7.15;78.57;100925.00;4863729;28;20078;-63
2022/11/22 09:49:21;;;;;;;5.10;3.20;;;;;;;-7.42;78.31;100919.84;4887185;28;20087;-64
2022/11/22 09:55:23;;;;;;;11.10;4.00;;;;;;;-7.64;79.01;100883.69;4811170;28;20072;-63
2022/11/22 09:58:38;;;;;;;6.13;3.53;;;;;;;-7.43;78.21;100935.88;4802835;28;20120;-63
2022/11/22 10:01:32;;;;;;;6.40;4.05;;;;;;;-8.16;78.39;100819.34;4880012;28;20113;-62
2022/11/22 10:04:17;;;;;;;6.88;4.15;;;;;;;-7.65;77.88;100947.91;4867453;28;20048;-63
2022/11/22 10:07:16;;;;;;;7.00;3.90;;;;;;;-7.75;77.88;100951.50;4864911;28;20064;-63
2022/11/22 10:10:23;;;;;;;6.45;3.50;;;;;;;-8.06;77.82;100966.28;4830930;28;20057;-63
2022/11/22 10:16:39;;;;;;;6.13;3.75;;;;;;;-8.27;79.85;100963.13;4914913;28;20068;-63
2022/11/22 10:19:24;;;;;;;9.15;4.72;;;;;;;-8.16;80.28;100974.00;4917330;28;20378;-63
2022/11/22 10:22:04;;;;;;;7.63;4.10;;;;;;;-8.04;81.04;100982.47;4921631;28;20071;-62
2022/11/22 10:24:52;;;;;;;6.75;3.15;;;;;;;-7.76;81.23;100975.13;4923087;28;20086;-64
2022/11/22 10:27:53;;;;;;;6.95;2.90;;;;;;;-7.51;81.72;100987.81;4880958;28;20049;-62
2022/11/22 10:30:39;;;;;;;3.03;2.50;;;;;;;-7.40;81.48;100986.84;4924499;28;20123;-63
2022/11/22 10:33:48;;;;;;;3.28;2.40;;;;;;;-7.37;81.53;100981.97;4919160;28;20079;-63
2022/11/22 10:36:45;;;;;;;3.92;2.92;;;;;;;-7.31;80.87;100990.78;4929031;28;20115;-63
2022/11/22 10:39:57;;;;;;;2.78;2.53;;;;;;;-7.67;80.93;100980.78;4903430;28;20054;-63
2022/11/22 10:43:01;;;;;;;5.72;3.22;;;;;;;-7.68;81.35;101004.44;4904729;28;20052;-63
2022/11/22 10:45:42;;;;;;;3.13;2.50;;;;;;;-7.73;81.92;101021.00;4928191;28;20159;-63
2022/11/22 10:48:41;;;;;;;4.85;2.80;;;;;;;-7.68;82.45;101011.16;4936436;28;20101;-64
2022/11/22 10:51:38;;;;;;;11.80;3.47;;;;;;;-7.76;82.48;100995.41;4934301;28;20129;-63
2022/11/22 10:54:39;;;;;;;47.33;13.33;;;;;;;-7.56;82.74;101014.53;4917506;28;20064;-63
2022/11/22 10:57:24;;;;;;;116.07;32.80;;;;;;;-7.52;82.18;101021.56;4861627;28;20330;-62
2022/11/22 11:03:27;;;;;;;120.82;29.85;;;;;;;-7.52;82.51;101016.50;4854432;28;20044;-62
2022/11/22 11:06:18;;;;;;;130.00;35.60;;;;;;;-7.55;82.84;101000.19;4937425;28;20081;-62
2022/11/22 11:09:37;;;;;;;154.90;36.03;;;;;;;-7.33;82.60;101022.81;4924476;28;20048;-62
2022/11/22 11:12:58;;;;;;;194.35;41.58;;;;;;;-7.26;82.63;101009.75;4925637;28;20125;-62
2022/11/22 11:15:48;;;;;;;194.85;47.22;;;;;;;-7.43;82.25;100966.34;4932791;28;20041;-63
2022/11/22 11:18:34;;;;;;;155.57;40.55;;;;;;;-7.07;82.04;101014.38;4925186;27;20081;-63
2022/11/22 11:21:20;;;;;;;117.80;31.15;;;;;;;-7.01;81.68;101023.31;4935416;28;20052;-62
2022/11/22 11:24:03;;;;;;;112.43;30.85;;;;;;;-7.03;81.52;101019.78;4909650;28;20059;-61
2022/11/22 11:26:50;;;;;;;102.65;30.67;;;;;;;-6.94;81.79;101019.50;4926711;28;20301;-62
2022/11/22 11:29:47;;;;;;;51.90;21.73;;;;;;;-7.17;81.25;100979.88;4915142;28;20624;-62
2022/11/22 11:32:27;;;;;;;43.63;17.42;;;;;;;-6.96;81.11;101019.41;4929450;28;20055;-62
2022/11/22 11:35:42;;;;;;;29.95;14.07;;;;;;;-6.94;81.05;101019.50;4833592;28;20083;-62
2022/11/22 11:38:50;;;;;;;31.38;14.88;;;;;;;-6.92;80.96;101017.06;4848167;28;20110;-62
2022/11/22 11:41:39;;;;;;;22.83;11.02;;;;;;;-6.95;80.79;100993.22;4865916;28;20054;-63
2022/11/22 11:44:36;;;;;;;15.32;7.22;;;;;;;-6.77;81.11;101018.06;4849321;28;20045;-62
2022/11/22 11:47:21;;;;;;;12.05;5.90;;;;;;;-6.77;81.07;101023.16;4875114;28;20605;-62
2022/11/22 11:50:19;;;;;;;14.88;5.95;;;;;;;-6.82;81.46;101014.34;4821865;28;20081;-62
2022/11/22 11:56:47;;;;;;;5.25;3.30;;;;;;;-6.48;82.31;101011.44;4807628;28;20087;-62
2022/11/22 12:02:45;;;;;;;10.30;4.40;;;;;;;-6.20;81.18;101024.22;4808774;28;20066;-62
2022/11/22 12:05:34;;;;;;;9.00;4.55;;;;;;;-6.12;81.34;100997.59;4835294;28;20046;-66
2022/11/22 12:08:36;;;;;;;8.65;4.28;;;;;;;-5.83;81.63;101037.56;4792268;29;20363;-63
2022/11/22 12:11:28;;;;;;;9.00;4.55;;;;;;;-5.91;80.32;101029.44;4823693;28;20360;-63
2022/11/22 12:14:14;;;;;;;6.70;3.63;;;;;;;-5.82;79.46;101034.22;4810818;28;20069;-64
2022/11/22 12:17:11;;;;;;;5.82;3.72;;;;;;;-5.85;79.65;101001.81;4807604;28;20078;-63
2022/11/22 12:20:05;;;;;;;7.95;4.05;;;;;;;-5.76;80.03;100988.78;4861841;28;20051;-64
2022/11/22 12:23:13;;;;;;;5.57;3.60;;;;;;;-5.30;80.15;101029.72;4861535;28;20062;-64
2022/11/22 12:29:14;;;;;;;;;;;;;;;-5.38;77.47;101023.31;4848461;28;20046;-63
2022/11/22 12:32:16;;;;;;;6.38;3.75;;;;;;;-5.59;77.04;101020.34;4946880;28;19977;-66
2022/11/22 12:35:27;;;;;;;7.05;3.65;;;;;;;-5.58;77.29;101036.50;4853197;28;20057;-64
2022/11/22 12:38:19;;;;;;;6.63;3.63;;;;;;;-5.72;76.84;101031.44;4915255;28;20044;-64
2022/11/22 12:41:12;;;;;;;5.57;3.45;;;;;;;-5.73;77.07;101039.00;4927250;28;20075;-66
2022/11/22 12:43:55;;;;;;;6.05;3.50;;;;;;;-5.81;76.76;101033.44;4916193;28;20044;-64
2022/11/22 12:47:10;;;;;;;7.82;4.22;;;;;;;-5.78;77.34;101041.25;4939652;28;20137;-64
2022/11/22 12:49:53;;;;;;;5.82;3.83;;;;;;;-5.79;76.88;101042.06;4896280;28;20109;-64
2022/11/22 12:52:49;;;;;;;6.20;3.15;;;;;;;-5.78;77.33;101030.19;4910370;28;20056;-65
2022/11/22 12:55:53;;;;;;;8.25;4.03;;;;;;;-5.59;77.29;101038.19;4938244;28;20055;-65
2022/11/22 12:58:46;;;;;;;8.82;4.28;;;;;;;-5.64;76.82;101035.34;4908907;28;20076;-64
2022/11/22 13:01:52;;;;;;;9.15;4.13;;;;;;;-6.05;76.43;100973.44;4900273;28;20051;-65
2022/11/22 13:04:40;;;;;;;8.60;3.78;;;;;;;-5.80;76.40;101027.56;4909556;28;20101;-65
2022/11/22 13:07:58;;;;;;;6.07;3.60;;;;;;;-5.95;76.12;101026.66;4905832;28;20143;-65
2022/11/22 13:10:45;;;;;;;6.57;3.38;;;;;;;-6.09;76.62;101026.69;4864341;28;20050;-65
2022/11/22 13:13:36;;;;;;;7.35;3.38;;;;;;;-6.12;77.34;101023.91;4943838;27;20084;-65
2022/11/22 13:16:14;;;;;;;8.40;4.00;;;;;;;-6.24;77.66;101013.00;4905134;28;20053;-65
2022/11/22 13:19:01;;;;;;;6.05;3.50;;;;;;;-6.35;77.72;100988.53;4915703;28;20044;-65
2022/11/22 13:21:54;;;;;;;5.97;3.50;;;;;;;-6.08;78.63;101025.88;4902357;28;20052;-64
2022/11/22 13:24:50;;;;;;;5.70;3.92;;;;;;;-6.01;78.51;101026.28;4927752;28;20051;-64
2022/11/22 13:27:45;;;;;;;18.30;8.18;;;;;;;-6.12;78.58;101008.66;4922081;28;20057;-65
2022/11/22 13:30:38;;;;;;;33.25;12.70;;;;;;;-6.58;78.70;100949.84;4885199;28;20067;-66
2022/11/22 13:33:27;;;;;;;12.00;5.22;;;;;;;-6.74;78.12;100916.59;4892807;28;20453;-65
2022/11/22 13:36:36;;;;;;;22.90;9.70;;;;;;;-6.18;78.71;101030.31;4913231;28;20070;-66
2022/11/22 13:42:20;;;;;;;10.07;5.50;;;;;;;-6.21;78.81;101023.38;4934680;28;20098;-65
2022/11/22 13:45:25;;;;;;;14.20;5.68;;;;;;;-6.33;78.14;101033.63;4900328;28;20055;-65
2022/11/22 13:48:21;;;;;;;9.73;5.20;;;;;;;-6.49;77.48;101040.19;4930999;28;20306;-65
2022/11/22 13:51:14;;;;;;;10.50;4.40;;;;;;;-6.74;76.65;101048.75;4923499;28;20120;-64
2022/11/22 13:54:46;;;;;;;8.73;4.55;;;;;;;-6.96;77.12;101042.28;4822506;28;20049;-65
2022/11/22 14:00:58;;;;;;;17.15;7.68;;;;;;;-6.96;76.98;101060.06;4903592;28;20081;-65
2022/11/22 14:03:55;;;;;;;12.88;5.95;;;;;;;-7.06;77.18;101050.06;4931021;28;20057;-66
2022/11/22 14:06:39;;;;;;;16.40;8.13;;;;;;;-7.03;77.52;101047.72;4886619;28;20053;-65
2022/11/22 14:09:38;;;;;;;10.45;4.50;;;;;;;-6.80;77.84;101058.53;4907672;28;20061;-66
2022/11/22 14:12:56;;;;;;;9.90;5.13;;;;;;;-6.80;77.44;101058.53;4927332;28;20416;-65
2022/11/22 14:16:24;;;;;;;8.90;4.30;;;;;;;-6.86;77.12;101053.03;4902215;28;20097;-65
2022/11/22 14:22:29;;;;;;;11.57;5.72;;;;;;;-6.82;77.72;101057.53;4908486;28;20067;-65
2022/11/22 14:25:41;;;;;;;8.27;4.10;;;;;;;-6.74;78.31;101054.75;4935206;28;20056;-66
2022/11/22 14:28:38;;;;;;;9.60;4.57;;;;;;;-6.69;78.47;101049.94;4911468;28;20053;-65
2022/11/22 14:31:24;;;;;;;8.85;4.40;;;;;;;-6.66;78.45;101040.00;4897633;28;20337;-65
2022/11/22 14:34:27;;;;;;;7.45;4.03;;;;;;;-6.49;79.18;101057.97;4909609;28;20392;-65
2022/11/22 14:37:43;;;;;;;6.50;4.10;;;;;;;-6.38;78.94;101049.38;4939256;28;20056;-65
2022/11/22 14:43:37;;;;;;;10.02;4.60;;;;;;;-6.17;79.61;101039.69;4939421;28;20482;-65
2022/11/22 14:49:36;;;;;;;8.98;4.85;;;;;;;-6.11;79.92;101038.41;4924893;28;19935;-65
2022/11/22 14:52:28;;;;;;;13.05;6.65;;;;;;;-6.09;79.75;101034.31;4906237;28;20057;-65
2022/11/22 14:55:05;;;;;;;12.68;6.93;;;;;;;-6.02;79.63;101039.75;4924837;28;20070;-66
2022/11/22 14:57:58;;;;;;;16.70;7.78;;;;;;;-5.91;80.05;101048.94;4944255;28;20063;-65
2022/11/22 15:00:51;;;;;;;13.65;6.80;;;;;;;-5.93;80.23;101035.22;4935254;28;20119;-65
2022/11/22 15:04:26;;;;;;;9.02;4.78;;;;;;;-5.78;80.86;101042.94;4882912;28;20048;-64